sensor_id;sensor_type;location;lat;lon;timestamp;P1;durP1;ratioP1;P2;durP2;ratioP2
21354;SDS011;10835;50.148;19.760;2024-02-28T00:00:09;19.60;;;8.57;;
21354;SDS011;10835;50.148;19.760;2024-02-28T00:02:38;16.52;;;7.95;;
21354;SDS011;10835;50.148;19.760;2024-02-28T00:05:07;15.80;;;7.57;;
21354;SDS011;10835;50.148;19.760;2024-02-28T00:07:35;17.80;;;8.07;;
21354;SDS011;10835;50.148;19.760;2024-02-28T00:10:06;15.13;;;7.22;;
21354;SDS011;10835;50.148;19.760;2024-02-28T00:12:35;12.93;;;7.88;;
21354;SDS011;10835;50.148;19.760;2024-02-28T00:15:04;13.75;;;7.15;;
21354;SDS011;10835;50.148;19.760;2024-02-28T00:17:38;14.18;;;7.28;;
21354;SDS011;10835;50.148;19.760;2024-02-28T00:20:08;17.48;;;6.70;;
21354;SDS011;10835;50.148;19.760;2024-02-28T00:22:38;16.45;;;8.25;;
21354;SDS011;10835;50.148;19.760;2024-02-28T00:25:08;17.00;;;7.60;;
21354;SDS011;10835;50.148;19.760;2024-02-28T00:27:37;12.65;;;7.18;;
21354;SDS011;10835;50.148;19.760;2024-02-28T00:30:06;20.83;;;8.60;;
21354;SDS011;10835;50.148;19.760;2024-02-28T00:32:35;25.02;;;11.52;;
21354;SDS011;10835;50.148;19.760;2024-02-28T00:35:04;28.95;;;11.38;;
21354;SDS011;10835;50.148;19.760;2024-02-28T00:37:33;20.50;;;10.32;;
21354;SDS011;10835;50.148;19.760;2024-02-28T00:40:01;19.75;;;9.38;;
21354;SDS011;10835;50.148;19.760;2024-02-28T00:42:32;16.80;;;8.10;;
21354;SDS011;10835;50.148;19.760;2024-02-28T00:45:00;17.42;;;7.35;;
21354;SDS011;10835;50.148;19.760;2024-02-28T00:47:29;13.48;;;6.95;;
21354;SDS011;10835;50.148;19.760;2024-02-28T00:49:58;15.40;;;7.90;;
21354;SDS011;10835;50.148;19.760;2024-02-28T00:52:29;19.95;;;8.90;;
21354;SDS011;10835;50.148;19.760;2024-02-28T00:54:59;14.93;;;8.00;;
21354;SDS011;10835;50.148;19.760;2024-02-28T00:57:27;18.63;;;7.90;;
21354;SDS011;10835;50.148;19.760;2024-02-28T00:59:57;15.13;;;6.75;;
21354;SDS011;10835;50.148;19.760;2024-02-28T01:02:25;16.17;;;6.93;;
21354;SDS011;10835;50.148;19.760;2024-02-28T01:04:54;13.20;;;6.82;;
21354;SDS011;10835;50.148;19.760;2024-02-28T01:07:22;19.38;;;7.38;;
21354;SDS011;10835;50.148;19.760;2024-02-28T01:09:50;15.23;;;7.55;;
21354;SDS011;10835;50.148;19.760;2024-02-28T01:12:19;18.13;;;7.75;;
21354;SDS011;10835;50.148;19.760;2024-02-28T01:14:47;20.30;;;9.05;;
21354;SDS011;10835;50.148;19.760;2024-02-28T01:17:17;24.38;;;11.38;;
21354;SDS011;10835;50.148;19.760;2024-02-28T01:19:45;19.10;;;10.10;;
21354;SDS011;10835;50.148;19.760;2024-02-28T01:22:13;23.50;;;9.63;;
21354;SDS011;10835;50.148;19.760;2024-02-28T01:24:42;22.52;;;8.85;;
21354;SDS011;10835;50.148;19.760;2024-02-28T01:27:11;15.32;;;8.38;;
21354;SDS011;10835;50.148;19.760;2024-02-28T01:29:39;18.38;;;9.15;;
21354;SDS011;10835;50.148;19.760;2024-02-28T01:32:07;21.40;;;8.80;;
21354;SDS011;10835;50.148;19.760;2024-02-28T01:34:37;17.88;;;8.93;;
21354;SDS011;10835;50.148;19.760;2024-02-28T01:37:05;11.27;;;5.97;;
21354;SDS011;10835;50.148;19.760;2024-02-28T01:39:34;18.92;;;7.93;;
21354;SDS011;10835;50.148;19.760;2024-02-28T01:42:02;13.13;;;6.82;;
21354;SDS011;10835;50.148;19.760;2024-02-28T01:44:31;16.27;;;7.50;;
21354;SDS011;10835;50.148;19.760;2024-02-28T01:47:06;15.27;;;8.00;;
21354;SDS011;10835;50.148;19.760;2024-02-28T01:49:34;16.73;;;7.80;;
21354;SDS011;10835;50.148;19.760;2024-02-28T01:52:04;14.40;;;7.18;;
21354;SDS011;10835;50.148;19.760;2024-02-28T01:54:33;17.70;;;7.55;;
21354;SDS011;10835;50.148;19.760;2024-02-28T01:57:02;11.90;;;7.00;;
21354;SDS011;10835;50.148;19.760;2024-02-28T01:59:31;12.65;;;6.05;;
21354;SDS011;10835;50.148;19.760;2024-02-28T02:02:02;16.15;;;6.90;;
21354;SDS011;10835;50.148;19.760;2024-02-28T02:04:31;14.38;;;5.95;;
21354;SDS011;10835;50.148;19.760;2024-02-28T02:07:00;8.68;;;4.78;;
21354;SDS011;10835;50.148;19.760;2024-02-28T02:09:30;16.95;;;6.97;;
21354;SDS011;10835;50.148;19.760;2024-02-28T02:12:01;10.13;;;5.72;;
21354;SDS011;10835;50.148;19.760;2024-02-28T02:14:29;12.05;;;5.93;;
21354;SDS011;10835;50.148;19.760;2024-02-28T02:16:58;12.85;;;6.22;;
21354;SDS011;10835;50.148;19.760;2024-02-28T02:19:26;17.42;;;6.60;;
21354;SDS011;10835;50.148;19.760;2024-02-28T02:21:56;12.63;;;5.40;;
21354;SDS011;10835;50.148;19.760;2024-02-28T02:24:27;10.98;;;6.15;;
21354;SDS011;10835;50.148;19.760;2024-02-28T02:29:25;14.40;;;6.68;;
21354;SDS011;10835;50.148;19.760;2024-02-28T02:31:55;17.45;;;6.38;;
21354;SDS011;10835;50.148;19.760;2024-02-28T02:34:23;13.40;;;5.32;;
21354;SDS011;10835;50.148;19.760;2024-02-28T02:36:52;10.30;;;5.30;;
21354;SDS011;10835;50.148;19.760;2024-02-28T02:39:20;8.70;;;4.57;;
21354;SDS011;10835;50.148;19.760;2024-02-28T02:41:50;17.10;;;5.10;;
21354;SDS011;10835;50.148;19.760;2024-02-28T02:44:18;12.73;;;6.80;;
21354;SDS011;10835;50.148;19.760;2024-02-28T02:46:46;14.68;;;6.47;;
21354;SDS011;10835;50.148;19.760;2024-02-28T02:49:15;10.15;;;5.22;;
21354;SDS011;10835;50.148;19.760;2024-02-28T02:51:45;11.90;;;7.10;;
21354;SDS011;10835;50.148;19.760;2024-02-28T02:54:13;18.20;;;7.25;;
21354;SDS011;10835;50.148;19.760;2024-02-28T02:56:42;12.75;;;6.30;;
21354;SDS011;10835;50.148;19.760;2024-02-28T02:59:12;21.60;;;8.18;;
21354;SDS011;10835;50.148;19.760;2024-02-28T03:01:40;11.50;;;6.07;;
21354;SDS011;10835;50.148;19.760;2024-02-28T03:04:08;10.15;;;5.90;;
21354;SDS011;10835;50.148;19.760;2024-02-28T03:06:37;15.65;;;6.35;;
21354;SDS011;10835;50.148;19.760;2024-02-28T03:09:05;13.30;;;6.35;;
21354;SDS011;10835;50.148;19.760;2024-02-28T03:11:34;16.92;;;6.45;;
21354;SDS011;10835;50.148;19.760;2024-02-28T03:14:02;16.90;;;7.45;;
21354;SDS011;10835;50.148;19.760;2024-02-28T03:16:32;21.20;;;8.40;;
21354;SDS011;10835;50.148;19.760;2024-02-28T03:19:04;9.35;;;5.32;;
21354;SDS011;10835;50.148;19.760;2024-02-28T03:21:32;12.77;;;7.90;;
21354;SDS011;10835;50.148;19.760;2024-02-28T03:24:01;14.63;;;7.45;;
21354;SDS011;10835;50.148;19.760;2024-02-28T03:26:30;18.80;;;8.00;;
21354;SDS011;10835;50.148;19.760;2024-02-28T03:28:58;14.90;;;7.45;;
21354;SDS011;10835;50.148;19.760;2024-02-28T03:31:27;16.58;;;6.90;;
21354;SDS011;10835;50.148;19.760;2024-02-28T03:33:56;15.75;;;7.25;;
21354;SDS011;10835;50.148;19.760;2024-02-28T03:36:25;24.33;;;9.90;;
21354;SDS011;10835;50.148;19.760;2024-02-28T03:38:55;23.35;;;9.77;;
21354;SDS011;10835;50.148;19.760;2024-02-28T03:41:23;16.10;;;7.80;;
21354;SDS011;10835;50.148;19.760;2024-02-28T03:43:51;17.80;;;7.38;;
21354;SDS011;10835;50.148;19.760;2024-02-28T03:46:20;23.75;;;9.77;;
21354;SDS011;10835;50.148;19.760;2024-02-28T03:48:49;21.70;;;10.25;;
21354;SDS011;10835;50.148;19.760;2024-02-28T03:51:18;15.70;;;8.27;;
21354;SDS011;10835;50.148;19.760;2024-02-28T03:53:47;16.25;;;7.47;;
21354;SDS011;10835;50.148;19.760;2024-02-28T03:56:21;17.15;;;8.30;;
21354;SDS011;10835;50.148;19.760;2024-02-28T03:58:52;16.10;;;7.82;;
21354;SDS011;10835;50.148;19.760;2024-02-28T04:01:20;14.07;;;7.55;;
21354;SDS011;10835;50.148;19.760;2024-02-28T04:03:49;10.80;;;6.53;;
21354;SDS011;10835;50.148;19.760;2024-02-28T04:06:19;14.25;;;7.50;;
21354;SDS011;10835;50.148;19.760;2024-02-28T04:08:47;14.50;;;6.95;;
21354;SDS011;10835;50.148;19.760;2024-02-28T04:11:16;13.85;;;6.65;;
21354;SDS011;10835;50.148;19.760;2024-02-28T04:13:44;12.20;;;6.63;;
21354;SDS011;10835;50.148;19.760;2024-02-28T04:16:13;19.85;;;7.80;;
21354;SDS011;10835;50.148;19.760;2024-02-28T04:18:41;19.70;;;8.98;;
21354;SDS011;10835;50.148;19.760;2024-02-28T04:21:10;18.13;;;8.13;;
21354;SDS011;10835;50.148;19.760;2024-02-28T04:23:40;13.35;;;7.28;;
21354;SDS011;10835;50.148;19.760;2024-02-28T04:26:10;13.15;;;6.90;;
21354;SDS011;10835;50.148;19.760;2024-02-28T04:28:39;11.60;;;6.32;;
21354;SDS011;10835;50.148;19.760;2024-02-28T04:31:08;13.63;;;7.82;;
21354;SDS011;10835;50.148;19.760;2024-02-28T04:33:37;10.45;;;5.75;;
21354;SDS011;10835;50.148;19.760;2024-02-28T04:36:05;11.18;;;6.22;;
21354;SDS011;10835;50.148;19.760;2024-02-28T04:38:34;10.63;;;6.53;;
21354;SDS011;10835;50.148;19.760;2024-02-28T04:41:03;16.60;;;7.57;;
21354;SDS011;10835;50.148;19.760;2024-02-28T04:43:32;16.83;;;9.27;;
21354;SDS011;10835;50.148;19.760;2024-02-28T04:46:01;14.43;;;8.32;;
21354;SDS011;10835;50.148;19.760;2024-02-28T04:48:30;13.10;;;6.72;;
21354;SDS011;10835;50.148;19.760;2024-02-28T04:50:59;16.27;;;8.98;;
21354;SDS011;10835;50.148;19.760;2024-02-28T04:53:28;15.07;;;7.55;;
21354;SDS011;10835;50.148;19.760;2024-02-28T04:55:56;11.82;;;6.80;;
21354;SDS011;10835;50.148;19.760;2024-02-28T04:58:26;14.70;;;8.40;;
21354;SDS011;10835;50.148;19.760;2024-02-28T05:00:54;16.92;;;8.85;;
21354;SDS011;10835;50.148;19.760;2024-02-28T05:03:23;21.65;;;10.43;;
21354;SDS011;10835;50.148;19.760;2024-02-28T05:05:52;13.15;;;7.32;;
21354;SDS011;10835;50.148;19.760;2024-02-28T05:08:21;15.18;;;6.57;;
21354;SDS011;10835;50.148;19.760;2024-02-28T05:10:49;15.30;;;7.10;;
21354;SDS011;10835;50.148;19.760;2024-02-28T05:13:18;17.83;;;8.93;;
21354;SDS011;10835;50.148;19.760;2024-02-28T05:15:50;10.65;;;6.13;;
21354;SDS011;10835;50.148;19.760;2024-02-28T05:18:18;10.82;;;5.95;;
21354;SDS011;10835;50.148;19.760;2024-02-28T05:20:47;14.60;;;7.13;;
21354;SDS011;10835;50.148;19.760;2024-02-28T05:23:15;15.27;;;7.10;;
21354;SDS011;10835;50.148;19.760;2024-02-28T05:25:43;14.40;;;7.57;;
21354;SDS011;10835;50.148;19.760;2024-02-28T05:28:13;12.35;;;6.82;;
21354;SDS011;10835;50.148;19.760;2024-02-28T05:30:42;14.52;;;6.93;;
21354;SDS011;10835;50.148;19.760;2024-02-28T05:33:16;12.75;;;6.80;;
21354;SDS011;10835;50.148;19.760;2024-02-28T05:35:45;15.52;;;6.75;;
21354;SDS011;10835;50.148;19.760;2024-02-28T05:38:13;17.80;;;8.77;;
21354;SDS011;10835;50.148;19.760;2024-02-28T05:40:42;20.70;;;11.68;;
21354;SDS011;10835;50.148;19.760;2024-02-28T05:43:10;26.85;;;11.15;;
21354;SDS011;10835;50.148;19.760;2024-02-28T05:45:38;26.58;;;11.00;;
21354;SDS011;10835;50.148;19.760;2024-02-28T05:48:07;25.48;;;11.55;;
21354;SDS011;10835;50.148;19.760;2024-02-28T05:50:37;17.83;;;7.60;;
21354;SDS011;10835;50.148;19.760;2024-02-28T05:53:05;13.48;;;6.95;;
21354;SDS011;10835;50.148;19.760;2024-02-28T05:55:34;15.60;;;7.45;;
21354;SDS011;10835;50.148;19.760;2024-02-28T05:58:02;12.85;;;6.15;;
21354;SDS011;10835;50.148;19.760;2024-02-28T06:00:31;12.50;;;6.57;;
21354;SDS011;10835;50.148;19.760;2024-02-28T06:02:59;11.35;;;6.30;;
21354;SDS011;10835;50.148;19.760;2024-02-28T06:05:28;10.85;;;5.38;;
21354;SDS011;10835;50.148;19.760;2024-02-28T06:07:57;11.40;;;5.78;;
21354;SDS011;10835;50.148;19.760;2024-02-28T06:10:26;15.48;;;6.70;;
21354;SDS011;10835;50.148;19.760;2024-02-28T06:12:55;15.93;;;6.32;;
21354;SDS011;10835;50.148;19.760;2024-02-28T06:15:23;10.25;;;6.18;;
21354;SDS011;10835;50.148;19.760;2024-02-28T06:17:52;9.27;;;6.05;;
21354;SDS011;10835;50.148;19.760;2024-02-28T06:20:20;11.05;;;6.20;;
21354;SDS011;10835;50.148;19.760;2024-02-28T06:22:48;11.13;;;5.82;;
21354;SDS011;10835;50.148;19.760;2024-02-28T06:25:18;12.63;;;6.13;;
21354;SDS011;10835;50.148;19.760;2024-02-28T06:27:49;15.27;;;7.20;;
21354;SDS011;10835;50.148;19.760;2024-02-28T06:30:17;14.05;;;7.00;;
21354;SDS011;10835;50.148;19.760;2024-02-28T06:32:46;14.20;;;7.40;;
21354;SDS011;10835;50.148;19.760;2024-02-28T06:35:14;15.43;;;8.02;;
21354;SDS011;10835;50.148;19.760;2024-02-28T06:37:43;15.77;;;8.52;;
21354;SDS011;10835;50.148;19.760;2024-02-28T06:40:16;16.13;;;8.73;;
21354;SDS011;10835;50.148;19.760;2024-02-28T06:42:46;22.75;;;12.27;;
21354;SDS011;10835;50.148;19.760;2024-02-28T06:45:14;18.95;;;10.35;;
21354;SDS011;10835;50.148;19.760;2024-02-28T06:47:44;21.38;;;10.07;;
21354;SDS011;10835;50.148;19.760;2024-02-28T06:50:12;16.73;;;8.05;;
21354;SDS011;10835;50.148;19.760;2024-02-28T06:52:41;22.52;;;9.73;;
21354;SDS011;10835;50.148;19.760;2024-02-28T06:55:09;23.83;;;10.90;;
21354;SDS011;10835;50.148;19.760;2024-02-28T06:57:38;24.02;;;10.90;;
21354;SDS011;10835;50.148;19.760;2024-02-28T07:00:09;19.23;;;10.02;;
21354;SDS011;10835;50.148;19.760;2024-02-28T07:02:39;20.88;;;9.77;;
21354;SDS011;10835;50.148;19.760;2024-02-28T07:05:07;16.27;;;10.02;;
21354;SDS011;10835;50.148;19.760;2024-02-28T07:07:36;21.33;;;10.25;;
21354;SDS011;10835;50.148;19.760;2024-02-28T07:10:04;32.65;;;14.40;;
21354;SDS011;10835;50.148;19.760;2024-02-28T07:12:33;18.98;;;9.27;;
21354;SDS011;10835;50.148;19.760;2024-02-28T07:15:02;15.32;;;8.27;;
21354;SDS011;10835;50.148;19.760;2024-02-28T07:17:32;21.95;;;9.13;;
21354;SDS011;10835;50.148;19.760;2024-02-28T07:20:01;57.63;;;24.30;;
21354;SDS011;10835;50.148;19.760;2024-02-28T07:22:29;42.00;;;16.25;;
21354;SDS011;10835;50.148;19.760;2024-02-28T07:25:00;22.42;;;11.82;;
21354;SDS011;10835;50.148;19.760;2024-02-28T07:27:28;25.38;;;11.30;;
21354;SDS011;10835;50.148;19.760;2024-02-28T07:29:56;19.20;;;10.25;;
21354;SDS011;10835;50.148;19.760;2024-02-28T07:32:27;15.07;;;8.68;;
21354;SDS011;10835;50.148;19.760;2024-02-28T07:34:56;22.60;;;10.95;;
21354;SDS011;10835;50.148;19.760;2024-02-28T07:37:25;21.38;;;10.60;;
21354;SDS011;10835;50.148;19.760;2024-02-28T07:39:53;21.80;;;9.88;;
21354;SDS011;10835;50.148;19.760;2024-02-28T07:42:21;17.90;;;9.25;;
21354;SDS011;10835;50.148;19.760;2024-02-28T07:44:50;17.70;;;9.65;;
21354;SDS011;10835;50.148;19.760;2024-02-28T07:47:23;18.27;;;9.15;;
21354;SDS011;10835;50.148;19.760;2024-02-28T07:49:51;20.85;;;10.50;;
21354;SDS011;10835;50.148;19.760;2024-02-28T07:52:21;22.42;;;10.65;;
21354;SDS011;10835;50.148;19.760;2024-02-28T07:54:49;41.60;;;17.40;;
21354;SDS011;10835;50.148;19.760;2024-02-28T07:57:18;24.10;;;11.80;;
21354;SDS011;10835;50.148;19.760;2024-02-28T07:59:46;19.70;;;10.30;;
21354;SDS011;10835;50.148;19.760;2024-02-28T08:02:15;19.83;;;9.95;;
21354;SDS011;10835;50.148;19.760;2024-02-28T08:04:46;17.35;;;10.05;;
21354;SDS011;10835;50.148;19.760;2024-02-28T08:07:16;22.40;;;9.95;;
21354;SDS011;10835;50.148;19.760;2024-02-28T08:09:45;24.17;;;11.85;;
21354;SDS011;10835;50.148;19.760;2024-02-28T08:12:14;22.77;;;13.15;;
21354;SDS011;10835;50.148;19.760;2024-02-28T08:14:42;25.85;;;12.82;;
21354;SDS011;10835;50.148;19.760;2024-02-28T08:17:12;20.38;;;11.43;;
21354;SDS011;10835;50.148;19.760;2024-02-28T08:19:41;23.10;;;11.25;;
21354;SDS011;10835;50.148;19.760;2024-02-28T08:22:10;22.58;;;12.40;;
21354;SDS011;10835;50.148;19.760;2024-02-28T08:24:38;24.73;;;12.73;;
21354;SDS011;10835;50.148;19.760;2024-02-28T08:27:08;28.13;;;14.68;;
21354;SDS011;10835;50.148;19.760;2024-02-28T08:29:39;30.42;;;12.52;;
21354;SDS011;10835;50.148;19.760;2024-02-28T08:32:10;41.65;;;13.77;;
21354;SDS011;10835;50.148;19.760;2024-02-28T08:34:38;34.28;;;15.07;;
21354;SDS011;10835;50.148;19.760;2024-02-28T08:37:10;40.80;;;16.33;;
21354;SDS011;10835;50.148;19.760;2024-02-28T08:39:39;28.60;;;14.38;;
21354;SDS011;10835;50.148;19.760;2024-02-28T08:42:09;28.85;;;14.82;;
21354;SDS011;10835;50.148;19.760;2024-02-28T08:44:37;28.98;;;13.45;;
21354;SDS011;10835;50.148;19.760;2024-02-28T08:47:06;16.92;;;9.95;;
21354;SDS011;10835;50.148;19.760;2024-02-28T08:49:35;25.63;;;11.65;;
21354;SDS011;10835;50.148;19.760;2024-02-28T08:52:06;22.27;;;11.38;;
21354;SDS011;10835;50.148;19.760;2024-02-28T08:54:35;21.27;;;12.05;;
21354;SDS011;10835;50.148;19.760;2024-02-28T08:57:03;17.23;;;8.63;;
21354;SDS011;10835;50.148;19.760;2024-02-28T08:59:33;21.35;;;10.05;;
21354;SDS011;10835;50.148;19.760;2024-02-28T09:02:01;16.30;;;8.80;;
21354;SDS011;10835;50.148;19.760;2024-02-28T09:04:30;18.65;;;9.77;;
21354;SDS011;10835;50.148;19.760;2024-02-28T09:06:58;19.77;;;9.15;;
21354;SDS011;10835;50.148;19.760;2024-02-28T09:09:27;17.17;;;8.82;;
21354;SDS011;10835;50.148;19.760;2024-02-28T09:11:56;16.15;;;9.50;;
21354;SDS011;10835;50.148;19.760;2024-02-28T09:14:25;14.25;;;8.10;;
21354;SDS011;10835;50.148;19.760;2024-02-28T09:16:54;17.60;;;10.27;;
21354;SDS011;10835;50.148;19.760;2024-02-28T09:19:30;17.75;;;9.88;;
21354;SDS011;10835;50.148;19.760;2024-02-28T09:21:59;20.83;;;9.98;;
21354;SDS011;10835;50.148;19.760;2024-02-28T09:24:27;21.55;;;10.07;;
21354;SDS011;10835;50.148;19.760;2024-02-28T09:26:56;19.00;;;10.52;;
21354;SDS011;10835;50.148;19.760;2024-02-28T09:29:24;18.98;;;9.25;;
21354;SDS011;10835;50.148;19.760;2024-02-28T09:31:53;18.02;;;10.07;;
21354;SDS011;10835;50.148;19.760;2024-02-28T09:34:22;18.15;;;9.88;;
21354;SDS011;10835;50.148;19.760;2024-02-28T09:36:51;24.02;;;10.70;;
21354;SDS011;10835;50.148;19.760;2024-02-28T09:39:19;17.58;;;9.73;;
21354;SDS011;10835;50.148;19.760;2024-02-28T09:41:48;20.30;;;10.85;;
21354;SDS011;10835;50.148;19.760;2024-02-28T09:44:17;19.05;;;11.15;;
21354;SDS011;10835;50.148;19.760;2024-02-28T09:46:48;18.88;;;10.55;;
21354;SDS011;10835;50.148;19.760;2024-02-28T09:49:20;17.35;;;9.55;;
21354;SDS011;10835;50.148;19.760;2024-02-28T09:51:53;19.10;;;10.57;;
21354;SDS011;10835;50.148;19.760;2024-02-28T09:54:24;17.08;;;10.05;;
21354;SDS011;10835;50.148;19.760;2024-02-28T09:56:53;18.50;;;10.82;;
21354;SDS011;10835;50.148;19.760;2024-02-28T09:59:23;22.65;;;11.35;;
21354;SDS011;10835;50.148;19.760;2024-02-28T10:02:05;25.02;;;11.60;;
21354;SDS011;10835;50.148;19.760;2024-02-28T10:04:38;21.23;;;11.73;;
21354;SDS011;10835;50.148;19.760;2024-02-28T10:07:10;20.35;;;11.15;;
21354;SDS011;10835;50.148;19.760;2024-02-28T10:09:40;23.48;;;11.57;;
21354;SDS011;10835;50.148;19.760;2024-02-28T10:12:09;22.90;;;11.70;;
21354;SDS011;10835;50.148;19.760;2024-02-28T10:14:37;23.02;;;12.80;;
21354;SDS011;10835;50.148;19.760;2024-02-28T10:17:06;21.75;;;12.30;;
21354;SDS011;10835;50.148;19.760;2024-02-28T10:19:35;20.55;;;12.45;;
21354;SDS011;10835;50.148;19.760;2024-02-28T10:22:07;24.63;;;11.98;;
21354;SDS011;10835;50.148;19.760;2024-02-28T10:24:36;21.33;;;11.23;;
21354;SDS011;10835;50.148;19.760;2024-02-28T10:27:04;19.42;;;10.80;;
21354;SDS011;10835;50.148;19.760;2024-02-28T10:29:33;21.85;;;11.13;;
21354;SDS011;10835;50.148;19.760;2024-02-28T10:32:01;25.38;;;11.25;;
21354;SDS011;10835;50.148;19.760;2024-02-28T10:34:32;24.52;;;11.75;;
21354;SDS011;10835;50.148;19.760;2024-02-28T10:37:02;23.92;;;11.93;;
21354;SDS011;10835;50.148;19.760;2024-02-28T10:39:34;24.25;;;10.55;;
21354;SDS011;10835;50.148;19.760;2024-02-28T10:42:05;17.60;;;9.55;;
21354;SDS011;10835;50.148;19.760;2024-02-28T10:44:34;18.90;;;10.65;;
21354;SDS011;10835;50.148;19.760;2024-02-28T10:47:04;23.00;;;10.27;;
21354;SDS011;10835;50.148;19.760;2024-02-28T10:49:39;18.75;;;10.50;;
21354;SDS011;10835;50.148;19.760;2024-02-28T10:52:11;20.63;;;10.43;;
21354;SDS011;10835;50.148;19.760;2024-02-28T10:54:42;21.27;;;10.55;;
21354;SDS011;10835;50.148;19.760;2024-02-28T10:57:12;22.75;;;11.43;;
21354;SDS011;10835;50.148;19.760;2024-02-28T10:59:42;23.50;;;11.00;;
21354;SDS011;10835;50.148;19.760;2024-02-28T11:02:12;19.35;;;10.20;;
21354;SDS011;10835;50.148;19.760;2024-02-28T11:04:41;17.10;;;10.32;;
21354;SDS011;10835;50.148;19.760;2024-02-28T11:07:10;17.42;;;10.23;;
21354;SDS011;10835;50.148;19.760;2024-02-28T11:09:40;20.05;;;9.90;;
21354;SDS011;10835;50.148;19.760;2024-02-28T11:12:13;22.30;;;10.68;;
21354;SDS011;10835;50.148;19.760;2024-02-28T11:14:56;15.93;;;8.05;;
21354;SDS011;10835;50.148;19.760;2024-02-28T11:17:28;11.35;;;6.78;;
21354;SDS011;10835;50.148;19.760;2024-02-28T11:19:58;13.10;;;6.80;;
21354;SDS011;10835;50.148;19.760;2024-02-28T11:22:27;10.07;;;6.43;;
21354;SDS011;10835;50.148;19.760;2024-02-28T11:24:57;9.48;;;5.82;;
21354;SDS011;10835;50.148;19.760;2024-02-28T11:27:26;15.00;;;7.70;;
21354;SDS011;10835;50.148;19.760;2024-02-28T11:29:54;16.63;;;8.35;;
21354;SDS011;10835;50.148;19.760;2024-02-28T11:32:24;11.10;;;7.00;;
21354;SDS011;10835;50.148;19.760;2024-02-28T11:34:52;10.93;;;7.10;;
21354;SDS011;10835;50.148;19.760;2024-02-28T11:37:21;13.70;;;6.97;;
21354;SDS011;10835;50.148;19.760;2024-02-28T11:39:49;13.27;;;6.47;;
21354;SDS011;10835;50.148;19.760;2024-02-28T11:42:19;13.40;;;6.32;;
21354;SDS011;10835;50.148;19.760;2024-02-28T11:44:52;11.18;;;6.35;;
21354;SDS011;10835;50.148;19.760;2024-02-28T11:47:27;7.18;;;4.75;;
21354;SDS011;10835;50.148;19.760;2024-02-28T11:49:57;10.60;;;6.00;;
21354;SDS011;10835;50.148;19.760;2024-02-28T11:52:27;11.13;;;5.70;;
21354;SDS011;10835;50.148;19.760;2024-02-28T11:54:56;13.95;;;6.82;;
21354;SDS011;10835;50.148;19.760;2024-02-28T11:57:26;13.95;;;6.88;;
21354;SDS011;10835;50.148;19.760;2024-02-28T11:59:55;12.00;;;6.95;;
21354;SDS011;10835;50.148;19.760;2024-02-28T12:02:24;16.83;;;8.70;;
21354;SDS011;10835;50.148;19.760;2024-02-28T12:04:53;17.88;;;9.02;;
21354;SDS011;10835;50.148;19.760;2024-02-28T12:07:22;16.60;;;9.73;;
21354;SDS011;10835;50.148;19.760;2024-02-28T12:09:50;17.38;;;10.50;;
21354;SDS011;10835;50.148;19.760;2024-02-28T12:12:19;18.35;;;9.38;;
21354;SDS011;10835;50.148;19.760;2024-02-28T12:14:48;19.63;;;9.50;;
21354;SDS011;10835;50.148;19.760;2024-02-28T12:17:17;12.55;;;7.00;;
21354;SDS011;10835;50.148;19.760;2024-02-28T12:19:45;16.08;;;7.20;;
21354;SDS011;10835;50.148;19.760;2024-02-28T12:22:14;15.77;;;7.90;;
21354;SDS011;10835;50.148;19.760;2024-02-28T12:24:43;10.85;;;7.05;;
21354;SDS011;10835;50.148;19.760;2024-02-28T12:27:11;12.38;;;7.43;;
21354;SDS011;10835;50.148;19.760;2024-02-28T12:29:39;12.82;;;7.65;;
21354;SDS011;10835;50.148;19.760;2024-02-28T12:32:09;13.45;;;7.75;;
21354;SDS011;10835;50.148;19.760;2024-02-28T12:34:38;16.55;;;8.20;;
21354;SDS011;10835;50.148;19.760;2024-02-28T12:37:07;13.02;;;7.72;;
21354;SDS011;10835;50.148;19.760;2024-02-28T12:39:35;16.50;;;8.65;;
21354;SDS011;10835;50.148;19.760;2024-02-28T12:42:04;14.98;;;9.23;;
21354;SDS011;10835;50.148;19.760;2024-02-28T12:44:34;15.52;;;8.30;;
21354;SDS011;10835;50.148;19.760;2024-02-28T12:47:02;15.13;;;8.60;;
21354;SDS011;10835;50.148;19.760;2024-02-28T12:49:32;16.27;;;8.48;;
21354;SDS011;10835;50.148;19.760;2024-02-28T12:52:00;15.20;;;7.47;;
21354;SDS011;10835;50.148;19.760;2024-02-28T12:54:29;12.82;;;6.63;;
21354;SDS011;10835;50.148;19.760;2024-02-28T12:56:57;12.70;;;7.93;;
21354;SDS011;10835;50.148;19.760;2024-02-28T12:59:30;15.82;;;6.75;;
21354;SDS011;10835;50.148;19.760;2024-02-28T13:01:58;14.55;;;7.18;;
21354;SDS011;10835;50.148;19.760;2024-02-28T13:04:27;13.15;;;7.30;;
21354;SDS011;10835;50.148;19.760;2024-02-28T13:06:58;16.90;;;8.55;;
21354;SDS011;10835;50.148;19.760;2024-02-28T13:09:26;16.23;;;8.00;;
21354;SDS011;10835;50.148;19.760;2024-02-28T13:11:55;12.70;;;7.30;;
21354;SDS011;10835;50.148;19.760;2024-02-28T13:14:23;18.77;;;7.70;;
21354;SDS011;10835;50.148;19.760;2024-02-28T13:16:51;16.95;;;10.65;;
21354;SDS011;10835;50.148;19.760;2024-02-28T13:19:21;16.60;;;9.18;;
21354;SDS011;10835;50.148;19.760;2024-02-28T13:21:49;19.55;;;10.18;;
21354;SDS011;10835;50.148;19.760;2024-02-28T13:24:19;13.13;;;7.95;;
21354;SDS011;10835;50.148;19.760;2024-02-28T13:26:48;15.52;;;8.20;;
21354;SDS011;10835;50.148;19.760;2024-02-28T13:29:16;13.95;;;6.57;;
21354;SDS011;10835;50.148;19.760;2024-02-28T13:31:44;20.33;;;10.68;;
21354;SDS011;10835;50.148;19.760;2024-02-28T13:34:13;15.10;;;8.20;;
21354;SDS011;10835;50.148;19.760;2024-02-28T13:36:41;16.58;;;8.85;;
21354;SDS011;10835;50.148;19.760;2024-02-28T13:39:10;15.15;;;7.95;;
21354;SDS011;10835;50.148;19.760;2024-02-28T13:41:40;15.63;;;7.70;;
21354;SDS011;10835;50.148;19.760;2024-02-28T13:44:08;21.58;;;8.60;;
21354;SDS011;10835;50.148;19.760;2024-02-28T13:46:36;16.63;;;9.35;;
21354;SDS011;10835;50.148;19.760;2024-02-28T13:49:08;16.17;;;8.30;;
21354;SDS011;10835;50.148;19.760;2024-02-28T13:51:36;14.38;;;7.15;;
21354;SDS011;10835;50.148;19.760;2024-02-28T13:54:08;16.58;;;7.38;;
21354;SDS011;10835;50.148;19.760;2024-02-28T13:56:36;16.65;;;8.75;;
21354;SDS011;10835;50.148;19.760;2024-02-28T13:59:06;16.33;;;7.72;;
21354;SDS011;10835;50.148;19.760;2024-02-28T14:01:35;16.83;;;8.07;;
21354;SDS011;10835;50.148;19.760;2024-02-28T14:04:04;16.77;;;8.68;;
21354;SDS011;10835;50.148;19.760;2024-02-28T14:06:32;16.30;;;7.93;;
21354;SDS011;10835;50.148;19.760;2024-02-28T14:09:01;18.48;;;8.52;;
21354;SDS011;10835;50.148;19.760;2024-02-28T14:11:30;16.20;;;7.72;;
21354;SDS011;10835;50.148;19.760;2024-02-28T14:13:58;17.65;;;8.48;;
21354;SDS011;10835;50.148;19.760;2024-02-28T14:16:29;19.15;;;8.45;;
21354;SDS011;10835;50.148;19.760;2024-02-28T14:18:58;16.98;;;9.23;;
21354;SDS011;10835;50.148;19.760;2024-02-28T14:21:27;17.23;;;9.50;;
21354;SDS011;10835;50.148;19.760;2024-02-28T14:23:56;18.20;;;8.60;;
21354;SDS011;10835;50.148;19.760;2024-02-28T14:26:24;22.75;;;10.63;;
21354;SDS011;10835;50.148;19.760;2024-02-28T14:28:53;14.23;;;6.88;;
21354;SDS011;10835;50.148;19.760;2024-02-28T14:31:23;20.13;;;8.18;;